sensor_id;sensor_type;location;lat;lon;timestamp;temperature;humidity
71672;DHT22;62112;45.638;11.714;2023-02-03T00:01:40;19.70;59.60
71672;DHT22;62112;45.638;11.714;2023-02-03T00:04:06;19.60;59.50
71672;DHT22;62112;45.638;11.714;2023-02-03T00:06:32;19.60;59.70
71672;DHT22;62112;45.638;11.714;2023-02-03T00:08:58;19.60;59.70
71672;DHT22;62112;45.638;11.714;2023-02-03T00:11:29;19.50;59.40
71672;DHT22;62112;45.638;11.714;2023-02-03T00:13:55;19.50;59.70
71672;DHT22;62112;45.638;11.714;2023-02-03T00:16:21;19.50;59.70
71672;DHT22;62112;45.638;11.714;2023-02-03T00:18:47;19.50;59.80
71672;DHT22;62112;45.638;11.714;2023-02-03T00:21:13;19.40;59.90
71672;DHT22;62112;45.638;11.714;2023-02-03T00:23:40;19.50;59.60
71672;DHT22;62112;45.638;11.714;2023-02-03T00:26:10;19.40;59.60
71672;DHT22;62112;45.638;11.714;2023-02-03T00:28:37;19.50;59.90
71672;DHT22;62112;45.638;11.714;2023-02-03T00:31:03;19.40;59.60
71672;DHT22;62112;45.638;11.714;2023-02-03T00:33:29;19.40;60.00
71672;DHT22;62112;45.638;11.714;2023-02-03T00:35:55;19.30;60.50
71672;DHT22;62112;45.638;11.714;2023-02-03T00:38:20;19.30;59.80
71672;DHT22;62112;45.638;11.714;2023-02-03T00:40:53;19.30;60.00
71672;DHT22;62112;45.638;11.714;2023-02-03T00:43:19;19.30;59.70
71672;DHT22;62112;45.638;11.714;2023-02-03T00:45:45;19.30;59.60
71672;DHT22;62112;45.638;11.714;2023-02-03T00:48:11;19.30;59.90
71672;DHT22;62112;45.638;11.714;2023-02-03T00:50:37;19.30;60.20
71672;DHT22;62112;45.638;11.714;2023-02-03T00:53:03;19.20;60.60
71672;DHT22;62112;45.638;11.714;2023-02-03T00:55:28;19.30;60.40
71672;DHT22;62112;45.638;11.714;2023-02-03T00:57:54;19.20;60.10
71672;DHT22;62112;45.638;11.714;2023-02-03T01:00:20;19.20;60.30
71672;DHT22;62112;45.638;11.714;2023-02-03T01:02:46;19.20;60.40
71672;DHT22;62112;45.638;11.714;2023-02-03T01:05:12;19.20;60.40
71672;DHT22;62112;45.638;11.714;2023-02-03T01:07:38;19.20;60.30
71672;DHT22;62112;45.638;11.714;2023-02-03T01:10:04;19.20;60.40
71672;DHT22;62112;45.638;11.714;2023-02-03T01:12:31;19.20;60.10
71672;DHT22;62112;45.638;11.714;2023-02-03T01:14:57;19.20;60.70
71672;DHT22;62112;45.638;11.714;2023-02-03T01:17:23;19.20;60.30
71672;DHT22;62112;45.638;11.714;2023-02-03T01:19:50;19.10;60.30
71672;DHT22;62112;45.638;11.714;2023-02-03T01:22:16;19.10;60.00
71672;DHT22;62112;45.638;11.714;2023-02-03T01:24:42;19.10;60.30
71672;DHT22;62112;45.638;11.714;2023-02-03T01:27:08;19.10;60.40
71672;DHT22;62112;45.638;11.714;2023-02-03T01:29:34;19.10;60.90
71672;DHT22;62112;45.638;11.714;2023-02-03T01:32:00;19.10;60.50
71672;DHT22;62112;45.638;11.714;2023-02-03T01:34:26;19.00;60.30
71672;DHT22;62112;45.638;11.714;2023-02-03T01:36:51;19.00;60.60
71672;DHT22;62112;45.638;11.714;2023-02-03T01:39:17;19.00;60.40
71672;DHT22;62112;45.638;11.714;2023-02-03T01:41:43;19.00;60.90
71672;DHT22;62112;45.638;11.714;2023-02-03T01:47:00;19.00;60.80
71672;DHT22;62112;45.638;11.714;2023-02-03T01:49:31;18.90;61.00
71672;DHT22;62112;45.638;11.714;2023-02-03T01:52:00;18.90;61.10
71672;DHT22;62112;45.638;11.714;2023-02-03T01:54:30;18.90;60.70
71672;DHT22;62112;45.638;11.714;2023-02-03T01:57:03;19.00;60.80
71672;DHT22;62112;45.638;11.714;2023-02-03T01:59:32;18.90;60.90
71672;DHT22;62112;45.638;11.714;2023-02-03T02:01:59;18.90;61.20
71672;DHT22;62112;45.638;11.714;2023-02-03T02:04:33;18.90;60.90
71672;DHT22;62112;45.638;11.714;2023-02-03T02:07:00;18.90;60.90
71672;DHT22;62112;45.638;11.714;2023-02-03T02:09:26;18.80;60.70
71672;DHT22;62112;45.638;11.714;2023-02-03T02:11:53;18.90;61.00
71672;DHT22;62112;45.638;11.714;2023-02-03T02:14:19;18.80;61.20
71672;DHT22;62112;45.638;11.714;2023-02-03T02:17:05;18.90;61.00
71672;DHT22;62112;45.638;11.714;2023-02-03T02:20:05;18.80;61.40
71672;DHT22;62112;45.638;11.714;2023-02-03T02:23:43;18.80;61.30
71672;DHT22;62112;45.638;11.714;2023-02-03T02:34:33;18.80;61.50
71672;DHT22;62112;45.638;11.714;2023-02-03T02:37:27;18.80;61.40
71672;DHT22;62112;45.638;11.714;2023-02-03T02:40:08;18.70;61.80
71672;DHT22;62112;45.638;11.714;2023-02-03T02:42:54;18.80;61.70
71672;DHT22;62112;45.638;11.714;2023-02-03T02:45:36;18.60;61.40
71672;DHT22;62112;45.638;11.714;2023-02-03T02:48:25;18.70;61.60
71672;DHT22;62112;45.638;11.714;2023-02-03T02:50:55;18.70;61.20
71672;DHT22;62112;45.638;11.714;2023-02-03T02:53:25;18.70;61.50
71672;DHT22;62112;45.638;11.714;2023-02-03T02:55:54;18.70;61.70
71672;DHT22;62112;45.638;11.714;2023-02-03T02:58:22;18.70;61.10
71672;DHT22;62112;45.638;11.714;2023-02-03T03:00:49;18.70;61.50
71672;DHT22;62112;45.638;11.714;2023-02-03T03:03:19;18.70;61.30
71672;DHT22;62112;45.638;11.714;2023-02-03T03:05:51;18.60;61.20
71672;DHT22;62112;45.638;11.714;2023-02-03T03:08:22;18.70;61.90
71672;DHT22;62112;45.638;11.714;2023-02-03T03:10:49;18.60;61.00
71672;DHT22;62112;45.638;11.714;2023-02-03T03:13:21;18.70;61.50
71672;DHT22;62112;45.638;11.714;2023-02-03T03:15:50;18.60;61.30
71672;DHT22;62112;45.638;11.714;2023-02-03T03:18:47;18.60;61.50
71672;DHT22;62112;45.638;11.714;2023-02-03T03:21:24;18.50;61.50
71672;DHT22;62112;45.638;11.714;2023-02-03T03:23:53;18.60;61.30
71672;DHT22;62112;45.638;11.714;2023-02-03T03:26:50;18.60;61.50
71672;DHT22;62112;45.638;11.714;2023-02-03T03:29:31;18.50;61.20
71672;DHT22;62112;45.638;11.714;2023-02-03T03:32:00;18.60;61.50
71672;DHT22;62112;45.638;11.714;2023-02-03T03:34:27;18.50;61.80
71672;DHT22;62112;45.638;11.714;2023-02-03T03:37:19;18.50;61.80
71672;DHT22;62112;45.638;11.714;2023-02-03T03:40:01;18.60;61.60
71672;DHT22;62112;45.638;11.714;2023-02-03T03:42:44;18.60;61.70
71672;DHT22;62112;45.638;11.714;2023-02-03T03:45:26;18.50;61.50
71672;DHT22;62112;45.638;11.714;2023-02-03T03:48:10;18.50;62.10
71672;DHT22;62112;45.638;11.714;2023-02-03T03:50:46;18.50;61.20
71672;DHT22;62112;45.638;11.714;2023-02-03T03:53:15;18.50;61.60
71672;DHT22;62112;45.638;11.714;2023-02-03T03:55:45;18.50;61.70
71672;DHT22;62112;45.638;11.714;2023-02-03T03:58:14;18.50;61.40
71672;DHT22;62112;45.638;11.714;2023-02-03T04:00:43;18.50;61.40
71672;DHT22;62112;45.638;11.714;2023-02-03T04:03:22;18.50;61.50
71672;DHT22;62112;45.638;11.714;2023-02-03T04:05:48;18.50;61.70
71672;DHT22;62112;45.638;11.714;2023-02-03T04:08:13;18.50;61.50
71672;DHT22;62112;45.638;11.714;2023-02-03T04:10:41;18.60;61.40
71672;DHT22;62112;45.638;11.714;2023-02-03T04:13:09;18.40;61.60
71672;DHT22;62112;45.638;11.714;2023-02-03T04:15:35;18.50;61.60
71672;DHT22;62112;45.638;11.714;2023-02-03T04:18:01;18.40;61.50
71672;DHT22;62112;45.638;11.714;2023-02-03T04:20:28;18.50;61.40
71672;DHT22;62112;45.638;11.714;2023-02-03T04:22:54;18.40;61.70
71672;DHT22;62112;45.638;11.714;2023-02-03T04:25:21;18.40;62.10
71672;DHT22;62112;45.638;11.714;2023-02-03T04:27:46;18.50;62.10
71672;DHT22;62112;45.638;11.714;2023-02-03T04:30:13;18.40;61.80
71672;DHT22;62112;45.638;11.714;2023-02-03T04:32:39;18.30;61.80
71672;DHT22;62112;45.638;11.714;2023-02-03T04:35:05;18.40;61.60
71672;DHT22;62112;45.638;11.714;2023-02-03T04:37:32;18.40;61.60
71672;DHT22;62112;45.638;11.714;2023-02-03T04:39:58;18.40;61.60
71672;DHT22;62112;45.638;11.714;2023-02-03T04:42:24;18.40;61.70
71672;DHT22;62112;45.638;11.714;2023-02-03T04:44:51;18.40;61.70
71672;DHT22;62112;45.638;11.714;2023-02-03T04:47:17;18.40;61.50
71672;DHT22;62112;45.638;11.714;2023-02-03T04:49:44;18.40;61.70
71672;DHT22;62112;45.638;11.714;2023-02-03T04:52:10;18.30;61.80
71672;DHT22;62112;45.638;11.714;2023-02-03T04:54:36;18.30;62.10
71672;DHT22;62112;45.638;11.714;2023-02-03T04:57:02;18.40;62.00
71672;DHT22;62112;45.638;11.714;2023-02-03T04:59:28;18.30;61.60
71672;DHT22;62112;45.638;11.714;2023-02-03T05:01:54;18.30;62.10
71672;DHT22;62112;45.638;11.714;2023-02-03T05:04:20;18.30;61.80
71672;DHT22;62112;45.638;11.714;2023-02-03T05:06:46;18.30;61.80
71672;DHT22;62112;45.638;11.714;2023-02-03T05:09:12;18.30;61.90
71672;DHT22;62112;45.638;11.714;2023-02-03T05:11:38;18.40;61.80
71672;DHT22;62112;45.638;11.714;2023-02-03T05:14:04;18.30;61.80
71672;DHT22;62112;45.638;11.714;2023-02-03T05:16:30;18.40;61.50
71672;DHT22;62112;45.638;11.714;2023-02-03T05:18:56;18.40;61.60
71672;DHT22;62112;45.638;11.714;2023-02-03T05:21:21;18.30;61.60
71672;DHT22;62112;45.638;11.714;2023-02-03T05:23:47;18.40;61.90
71672;DHT22;62112;45.638;11.714;2023-02-03T05:26:16;18.30;62.20
71672;DHT22;62112;45.638;11.714;2023-02-03T05:28:45;18.30;62.10
71672;DHT22;62112;45.638;11.714;2023-02-03T05:31:11;18.30;61.90
71672;DHT22;62112;45.638;11.714;2023-02-03T05:33:37;18.20;61.90
71672;DHT22;62112;45.638;11.714;2023-02-03T05:36:03;18.20;61.30
71672;DHT22;62112;45.638;11.714;2023-02-03T05:38:29;18.30;62.00
71672;DHT22;62112;45.638;11.714;2023-02-03T05:40:55;18.20;62.00
71672;DHT22;62112;45.638;11.714;2023-02-03T05:43:40;18.20;61.80
71672;DHT22;62112;45.638;11.714;2023-02-03T05:46:08;18.20;61.80
71672;DHT22;62112;45.638;11.714;2023-02-03T05:48:34;18.30;61.90
71672;DHT22;62112;45.638;11.714;2023-02-03T05:51:00;18.20;61.70
71672;DHT22;62112;45.638;11.714;2023-02-03T05:53:27;18.30;61.40
71672;DHT22;62112;45.638;11.714;2023-02-03T05:55:54;18.20;62.10
71672;DHT22;62112;45.638;11.714;2023-02-03T05:58:22;18.20;61.70
71672;DHT22;62112;45.638;11.714;2023-02-03T06:00:51;18.30;61.60
71672;DHT22;62112;45.638;11.714;2023-02-03T06:03:17;18.30;62.00
71672;DHT22;62112;45.638;11.714;2023-02-03T06:05:43;18.30;61.70
71672;DHT22;62112;45.638;11.714;2023-02-03T06:08:10;18.20;62.40
71672;DHT22;62112;45.638;11.714;2023-02-03T06:10:35;18.20;62.10
71672;DHT22;62112;45.638;11.714;2023-02-03T06:13:12;18.20;61.80
71672;DHT22;62112;45.638;11.714;2023-02-03T06:15:39;18.20;62.30
71672;DHT22;62112;45.638;11.714;2023-02-03T06:18:05;18.20;62.30
71672;DHT22;62112;45.638;11.714;2023-02-03T06:20:31;18.20;62.10
71672;DHT22;62112;45.638;11.714;2023-02-03T06:22:57;18.20;61.80
71672;DHT22;62112;45.638;11.714;2023-02-03T06:25:24;18.20;62.00
71672;DHT22;62112;45.638;11.714;2023-02-03T06:27:50;18.10;63.40
71672;DHT22;62112;45.638;11.714;2023-02-03T06:30:17;18.10;63.70
71672;DHT22;62112;45.638;11.714;2023-02-03T06:32:43;18.20;61.90
71672;DHT22;62112;45.638;11.714;2023-02-03T06:35:09;18.20;62.00
71672;DHT22;62112;45.638;11.714;2023-02-03T06:37:34;18.20;62.20
71672;DHT22;62112;45.638;11.714;2023-02-03T06:40:01;18.20;61.90
71672;DHT22;62112;45.638;11.714;2023-02-03T06:42:27;18.20;62.00
71672;DHT22;62112;45.638;11.714;2023-02-03T06:44:53;18.10;62.80
71672;DHT22;62112;45.638;11.714;2023-02-03T06:47:19;18.10;63.40
71672;DHT22;62112;45.638;11.714;2023-02-03T06:49:45;18.10;62.80
71672;DHT22;62112;45.638;11.714;2023-02-03T06:52:12;18.00;63.60
71672;DHT22;62112;45.638;11.714;2023-02-03T06:54:39;18.10;63.40
71672;DHT22;62112;45.638;11.714;2023-02-03T06:57:05;18.10;63.20
71672;DHT22;62112;45.638;11.714;2023-02-03T06:59:31;18.10;63.50
71672;DHT22;62112;45.638;11.714;2023-02-03T07:01:56;18.10;63.60
71672;DHT22;62112;45.638;11.714;2023-02-03T07:04:23;18.10;63.80
71672;DHT22;62112;45.638;11.714;2023-02-03T07:06:49;18.10;63.20
71672;DHT22;62112;45.638;11.714;2023-02-03T07:09:15;18.10;63.50
71672;DHT22;62112;45.638;11.714;2023-02-03T07:11:41;18.00;63.10
71672;DHT22;62112;45.638;11.714;2023-02-03T07:14:08;18.10;63.20
71672;DHT22;62112;45.638;11.714;2023-02-03T07:16:34;18.10;63.90
71672;DHT22;62112;45.638;11.714;2023-02-03T07:19:02;18.10;63.30
71672;DHT22;62112;45.638;11.714;2023-02-03T07:21:28;18.10;63.80
71672;DHT22;62112;45.638;11.714;2023-02-03T07:23:54;18.10;63.50
71672;DHT22;62112;45.638;11.714;2023-02-03T07:26:20;18.00;63.70
71672;DHT22;62112;45.638;11.714;2023-02-03T07:28:48;18.10;63.30
71672;DHT22;62112;45.638;11.714;2023-02-03T07:31:14;18.00;64.30
71672;DHT22;62112;45.638;11.714;2023-02-03T07:33:40;18.10;64.20
71672;DHT22;62112;45.638;11.714;2023-02-03T07:36:06;18.00;64.40
71672;DHT22;62112;45.638;11.714;2023-02-03T07:38:33;18.10;64.60
71672;DHT22;62112;45.638;11.714;2023-02-03T07:40:58;18.10;64.30
71672;DHT22;62112;45.638;11.714;2023-02-03T07:43:24;18.00;64.70
71672;DHT22;62112;45.638;11.714;2023-02-03T07:45:50;18.00;65.10
71672;DHT22;62112;45.638;11.714;2023-02-03T07:48:16;18.10;65.20
71672;DHT22;62112;45.638;11.714;2023-02-03T07:50:43;18.00;65.00
71672;DHT22;62112;45.638;11.714;2023-02-03T07:53:10;18.10;65.10
71672;DHT22;62112;45.638;11.714;2023-02-03T07:55:37;18.20;64.10
71672;DHT22;62112;45.638;11.714;2023-02-03T07:58:04;18.10;65.60
71672;DHT22;62112;45.638;11.714;2023-02-03T08:00:30;18.20;63.90
71672;DHT22;62112;45.638;11.714;2023-02-03T08:02:56;18.20;64.40
71672;DHT22;62112;45.638;11.714;2023-02-03T08:05:22;18.30;63.90
71672;DHT22;62112;45.638;11.714;2023-02-03T08:07:48;18.30;64.20
71672;DHT22;62112;45.638;11.714;2023-02-03T08:10:14;18.40;64.00
71672;DHT22;62112;45.638;11.714;2023-02-03T08:12:41;18.30;64.00
71672;DHT22;62112;45.638;11.714;2023-02-03T08:15:11;18.40;63.70
71672;DHT22;62112;45.638;11.714;2023-02-03T08:17:37;18.40;63.50
71672;DHT22;62112;45.638;11.714;2023-02-03T08:20:09;18.40;63.40
71672;DHT22;62112;45.638;11.714;2023-02-03T08:22:35;18.50;63.30
71672;DHT22;62112;45.638;11.714;2023-02-03T08:25:01;18.40;63.10
71672;DHT22;62112;45.638;11.714;2023-02-03T08:27:28;18.50;63.00
71672;DHT22;62112;45.638;11.714;2023-02-03T08:29:56;18.50;63.40
71672;DHT22;62112;45.638;11.714;2023-02-03T08:32:22;18.60;63.00
71672;DHT22;62112;45.638;11.714;2023-02-03T08:34:50;18.50;62.60
71672;DHT22;62112;45.638;11.714;2023-02-03T08:37:18;18.60;62.80
71672;DHT22;62112;45.638;11.714;2023-02-03T08:39:44;18.60;62.50
71672;DHT22;62112;45.638;11.714;2023-02-03T08:42:10;18.70;62.50
71672;DHT22;62112;45.638;11.714;2023-02-03T08:44:36;18.70;62.80
71672;DHT22;62112;45.638;11.714;2023-02-03T08:47:04;18.80;62.30
71672;DHT22;62112;45.638;11.714;2023-02-03T08:49:31;18.80;62.50
71672;DHT22;62112;45.638;11.714;2023-02-03T08:51:57;18.80;62.30
71672;DHT22;62112;45.638;11.714;2023-02-03T08:54:24;18.90;62.10
71672;DHT22;62112;45.638;11.714;2023-02-03T08:56:50;18.90;61.50
71672;DHT22;62112;45.638;11.714;2023-02-03T08:59:16;18.90;61.30
71672;DHT22;62112;45.638;11.714;2023-02-03T09:01:42;19.00;61.50
71672;DHT22;62112;45.638;11.714;2023-02-03T09:04:13;19.00;61.20
71672;DHT22;62112;45.638;11.714;2023-02-03T09:06:39;19.10;61.70
71672;DHT22;62112;45.638;11.714;2023-02-03T09:09:05;19.10;61.50
71672;DHT22;62112;45.638;11.714;2023-02-03T09:13:33;19.10;61.10
71672;DHT22;62112;45.638;11.714;2023-02-03T09:15:59;19.20;60.50
71672;DHT22;62112;45.638;11.714;2023-02-03T09:18:25;19.30;60.80
71672;DHT22;62112;45.638;11.714;2023-02-03T09:20:51;19.30;60.50
71672;DHT22;62112;45.638;11.714;2023-02-03T09:23:17;19.40;60.90
71672;DHT22;62112;45.638;11.714;2023-02-03T09:25:43;19.40;60.80
71672;DHT22;62112;45.638;11.714;2023-02-03T09:28:08;19.50;60.30
71672;DHT22;62112;45.638;11.714;2023-02-03T09:30:34;19.50;60.40
71672;DHT22;62112;45.638;11.714;2023-02-03T09:33:00;19.50;60.30
71672;DHT22;62112;45.638;11.714;2023-02-03T09:35:26;19.60;60.30
71672;DHT22;62112;45.638;11.714;2023-02-03T09:37:54;19.70;59.90
71672;DHT22;62112;45.638;11.714;2023-02-03T09:40:25;19.70;59.70
71672;DHT22;62112;45.638;11.714;2023-02-03T09:43:34;19.70;59.80
71672;DHT22;62112;45.638;11.714;2023-02-03T09:45:50;19.70;59.20
71672;DHT22;62112;45.638;11.714;2023-02-03T09:48:21;19.80;59.40
71672;DHT22;62112;45.638;11.714;2023-02-03T09:50:49;19.80;59.50
71672;DHT22;62112;45.638;11.714;2023-02-03T09:53:31;19.80;59.20
71672;DHT22;62112;45.638;11.714;2023-02-03T09:56:00;19.90;59.00
71672;DHT22;62112;45.638;11.714;2023-02-03T09:58:31;19.90;59.20
71672;DHT22;62112;45.638;11.714;2023-02-03T10:01:05;19.90;59.10
71672;DHT22;62112;45.638;11.714;2023-02-03T10:11:51;20.00;58.80
71672;DHT22;62112;45.638;11.714;2023-02-03T10:22:33;20.10;58.20
71672;DHT22;62112;45.638;11.714;2023-02-03T10:27:54;20.00;58.50
71672;DHT22;62112;45.638;11.714;2023-02-03T10:30:38;20.10;58.40
71672;DHT22;62112;45.638;11.714;2023-02-03T10:33:15;20.10;58.50
71672;DHT22;62112;45.638;11.714;2023-02-03T10:41:11;20.20;58.50
71672;DHT22;62112;45.638;11.714;2023-02-03T10:43:37;20.20;58.20
71672;DHT22;62112;45.638;11.714;2023-02-03T10:46:17;20.20;58.60
71672;DHT22;62112;45.638;11.714;2023-02-03T10:48:44;20.20;58.60
71672;DHT22;62112;45.638;11.714;2023-02-03T10:51:24;20.20;58.80
71672;DHT22;62112;45.638;11.714;2023-02-03T10:53:51;20.20;57.60
71672;DHT22;62112;45.638;11.714;2023-02-03T10:56:21;20.20;58.30
71672;DHT22;62112;45.638;11.714;2023-02-03T10:58:53;20.30;57.90
71672;DHT22;62112;45.638;11.714;2023-02-03T11:01:26;20.30;58.10
71672;DHT22;62112;45.638;11.714;2023-02-03T11:04:00;20.30;57.90
71672;DHT22;62112;45.638;11.714;2023-02-03T11:06:27;20.30;58.20
71672;DHT22;62112;45.638;11.714;2023-02-03T11:08:53;20.30;58.00
71672;DHT22;62112;45.638;11.714;2023-02-03T11:11:27;20.50;58.00
71672;DHT22;62112;45.638;11.714;2023-02-03T11:13:55;20.40;57.80
71672;DHT22;62112;45.638;11.714;2023-02-03T11:16:25;20.40;57.50
71672;DHT22;62112;45.638;11.714;2023-02-03T11:19:02;20.40;57.80
71672;DHT22;62112;45.638;11.714;2023-02-03T11:24:07;20.50;57.90
71672;DHT22;62112;45.638;11.714;2023-02-03T11:26:43;20.50;57.90
71672;DHT22;62112;45.638;11.714;2023-02-03T11:29:24;20.50;58.20
71672;DHT22;62112;45.638;11.714;2023-02-03T11:31:52;20.60;57.80
71672;DHT22;62112;45.638;11.714;2023-02-03T11:34:23;20.60;57.70
71672;DHT22;62112;45.638;11.714;2023-02-03T11:36:50;20.60;58.00
71672;DHT22;62112;45.638;11.714;2023-02-03T11:39:27;20.60;58.00
71672;DHT22;62112;45.638;11.714;2023-02-03T11:41:54;20.60;58.00
71672;DHT22;62112;45.638;11.714;2023-02-03T11:44:26;20.60;58.10
71672;DHT22;62112;45.638;11.714;2023-02-03T11:47:08;20.70;58.40
71672;DHT22;62112;45.638;11.714;2023-02-03T11:55:11;20.60;58.40
71672;DHT22;62112;45.638;11.714;2023-02-03T11:58:34;20.60;58.30
71672;DHT22;62112;45.638;11.714;2023-02-03T12:01:05;20.60;58.40
71672;DHT22;62112;45.638;11.714;2023-02-03T12:06:37;20.60;58.20
71672;DHT22;62112;45.638;11.714;2023-02-03T12:17:59;20.50;58.40
71672;DHT22;62112;45.638;11.714;2023-02-03T12:20:39;20.50;58.10
71672;DHT22;62112;45.638;11.714;2023-02-03T12:31:32;20.40;58.10
71672;DHT22;62112;45.638;11.714;2023-02-03T12:34:23;20.50;58.30
71672;DHT22;62112;45.638;11.714;2023-02-03T12:37:09;20.40;58.60
71672;DHT22;62112;45.638;11.714;2023-02-03T12:39:46;20.40;58.30
71672;DHT22;62112;45.638;11.714;2023-02-03T12:45:09;20.30;58.20
71672;DHT22;62112;45.638;11.714;2023-02-03T12:47:40;20.40;58.40
71672;DHT22;62112;45.638;11.714;2023-02-03T12:56:02;20.30;58.30
71672;DHT22;62112;45.638;11.714;2023-02-03T12:58:40;20.30;58.60
71672;DHT22;62112;45.638;11.714;2023-02-03T13:01:23;20.30;58.40
71672;DHT22;62112;45.638;11.714;2023-02-03T13:06:31;20.30;58.80
71672;DHT22;62112;45.638;11.714;2023-02-03T13:09:04;20.20;58.70
71672;DHT22;62112;45.638;11.714;2023-02-03T13:14:41;20.10;58.50
71672;DHT22;62112;45.638;11.714;2023-02-03T13:19:51;20.20;58.70
71672;DHT22;62112;45.638;11.714;2023-02-03T13:22:20;20.20;58.30
71672;DHT22;62112;45.638;11.714;2023-02-03T13:25:05;20.20;59.00
71672;DHT22;62112;45.638;11.714;2023-02-03T13:28:01;20.20;57.50
71672;DHT22;62112;45.638;11.714;2023-02-03T13:33:38;19.80;52.00
71672;DHT22;62112;45.638;11.714;2023-02-03T13:36:45;19.70;54.10
71672;DHT22;62112;45.638;11.714;2023-02-03T13:39:35;19.70;54.80
71672;DHT22;62112;45.638;11.714;2023-02-03T13:42:12;19.70;55.40
71672;DHT22;62112;45.638;11.714;2023-02-03T13:44:46;19.70;55.70
71672;DHT22;62112;45.638;11.714;2023-02-03T13:47:27;19.70;55.70
71672;DHT22;62112;45.638;11.714;2023-02-03T13:49:58;19.70;56.00
71672;DHT22;62112;45.638;11.714;2023-02-03T13:52:31;19.80;56.10
71672;DHT22;62112;45.638;11.714;2023-02-03T13:54:59;19.70;56.30
71672;DHT22;62112;45.638;11.714;2023-02-03T13:57:36;19.80;56.50
71672;DHT22;62112;45.638;11.714;2023-02-03T14:05:59;19.70;57.20
71672;DHT22;62112;45.638;11.714;2023-02-03T14:16:39;19.70;57.60
71672;DHT22;62112;45.638;11.714;2023-02-03T14:19:09;19.80;58.00
71672;DHT22;62112;45.638;11.714;2023-02-03T14:21:43;19.60;58.10
71672;DHT22;62112;45.638;11.714;2023-02-03T14:24:13;19.70;58.10
71672;DHT22;62112;45.638;11.714;2023-02-03T14:26:51;19.70;58.30
71672;DHT22;62112;45.638;11.714;2023-02-03T14:29:33;19.70;58.30
71672;DHT22;62112;45.638;11.714;2023-02-03T14:32:06;19.70;58.50
71672;DHT22;62112;45.638;11.714;2023-02-03T14:42:52;19.60;58.60
71672;DHT22;62112;45.638;11.714;2023-02-03T14:54:10;19.60;59.10
71672;DHT22;62112;45.638;11.714;2023-02-03T14:57:22;19.60;59.00
71672;DHT22;62112;45.638;11.714;2023-02-03T15:08:43;19.50;59.40
71672;DHT22;62112;45.638;11.714;2023-02-03T15:13:47;19.40;59.70
71672;DHT22;62112;45.638;11.714;2023-02-03T15:16:19;19.50;59.60
71672;DHT22;62112;45.638;11.714;2023-02-03T15:18:45;19.40;59.40
71672;DHT22;62112;45.638;11.714;2023-02-03T15:21:19;19.40;59.30
71672;DHT22;62112;45.638;11.714;2023-02-03T15:23:47;19.30;60.10
71672;DHT22;62112;45.638;11.714;2023-02-03T15:26:16;19.30;60.00
71672;DHT22;62112;45.638;11.714;2023-02-03T15:29:02;19.30;60.30
71672;DHT22;62112;45.638;11.714;2023-02-03T15:31:36;19.30;61.00
71672;DHT22;62112;45.638;11.714;2023-02-03T15:34:13;19.30;61.50
71672;DHT22;62112;45.638;11.714;2023-02-03T15:36:47;19.30;62.40
71672;DHT22;62112;45.638;11.714;2023-02-03T15:39:38;19.30;62.40
71672;DHT22;62112;45.638;11.714;2023-02-03T15:42:32;19.30;62.50
71672;DHT22;62112;45.638;11.714;2023-02-03T15:45:05;19.30;62.50
71672;DHT22;62112;45.638;11.714;2023-02-03T15:47:36;19.20;62.60
71672;DHT22;62112;45.638;11.714;2023-02-03T15:50:18;19.20;62.90
71672;DHT22;62112;45.638;11.714;2023-02-03T15:52:48;19.20;63.10
71672;DHT22;62112;45.638;11.714;2023-02-03T15:55:25;19.20;62.90
71672;DHT22;62112;45.638;11.714;2023-02-03T15:57:52;19.20;62.90
71672;DHT22;62112;45.638;11.714;2023-02-03T16:00:29;19.20;63.00
71672;DHT22;62112;45.638;11.714;2023-02-03T16:02:57;19.10;63.40
71672;DHT22;62112;45.638;11.714;2023-02-03T16:05:26;19.20;62.80
71672;DHT22;62112;45.638;11.714;2023-02-03T16:07:53;19.10;63.30
71672;DHT22;62112;45.638;11.714;2023-02-03T16:10:31;19.20;63.00
71672;DHT22;62112;45.638;11.714;2023-02-03T16:13:18;19.10;63.50
71672;DHT22;62112;45.638;11.714;2023-02-03T16:16:16;19.20;63.70
71672;DHT22;62112;45.638;11.714;2023-02-03T16:19:02;19.10;63.90
71672;DHT22;62112;45.638;11.714;2023-02-03T16:21:42;19.10;64.00
71672;DHT22;62112;45.638;11.714;2023-02-03T16:24:35;19.10;63.40
71672;DHT22;62112;45.638;11.714;2023-02-03T16:29:50;19.10;63.50
71672;DHT22;62112;45.638;11.714;2023-02-03T16:32:35;19.20;63.40
71672;DHT22;62112;45.638;11.714;2023-02-03T16:35:19;19.10;63.20
71672;DHT22;62112;45.638;11.714;2023-02-03T16:38:14;19.10;63.40
71672;DHT22;62112;45.638;11.714;2023-02-03T16:40:59;19.10;63.50
71672;DHT22;62112;45.638;11.714;2023-02-03T16:43:44;19.10;63.50
71672;DHT22;62112;45.638;11.714;2023-02-03T16:46:28;19.20;63.30
71672;DHT22;62112;45.638;11.714;2023-02-03T16:49:13;19.00;63.30
71672;DHT22;62112;45.638;11.714;2023-02-03T16:51:57;19.10;63.20
71672;DHT22;62112;45.638;11.714;2023-02-03T16:54:23;19.10;63.50
71672;DHT22;62112;45.638;11.714;2023-02-03T16:56:52;19.10;62.90
71672;DHT22;62112;45.638;11.714;2023-02-03T16:59:18;19.00;63.60
71672;DHT22;62112;45.638;11.714;2023-02-03T17:01:44;19.10;63.20
71672;DHT22;62112;45.638;11.714;2023-02-03T17:04:10;19.00;63.30
71672;DHT22;62112;45.638;11.714;2023-02-03T17:06:39;19.00;63.50
71672;DHT22;62112;45.638;11.714;2023-02-03T17:09:14;19.10;63.40
71672;DHT22;62112;45.638;11.714;2023-02-03T17:11:40;19.10;63.90
71672;DHT22;62112;45.638;11.714;2023-02-03T17:14:06;19.00;63.80
71672;DHT22;62112;45.638;11.714;2023-02-03T17:16:32;19.00;63.60
71672;DHT22;62112;45.638;11.714;2023-02-03T17:18:58;19.10;63.60
71672;DHT22;62112;45.638;11.714;2023-02-03T17:21:26;19.00;63.80
71672;DHT22;62112;45.638;11.714;2023-02-03T17:23:52;19.00;64.10
71672;DHT22;62112;45.638;11.714;2023-02-03T17:26:18;19.00;64.20
71672;DHT22;62112;45.638;11.714;2023-02-03T17:28:44;18.90;64.10
71672;DHT22;62112;45.638;11.714;2023-02-03T17:31:16;19.00;64.20
71672;DHT22;62112;45.638;11.714;2023-02-03T17:33:43;19.00;64.10
71672;DHT22;62112;45.638;11.714;2023-02-03T17:36:13;19.00;64.40
71672;DHT22;62112;45.638;11.714;2023-02-03T17:38:47;19.00;64.20
71672;DHT22;62112;45.638;11.714;2023-02-03T17:41:17;19.00;64.80
71672;DHT22;62112;45.638;11.714;2023-02-03T17:43:44;19.10;64.70
71672;DHT22;62112;45.638;11.714;2023-02-03T17:46:13;18.90;64.80
71672;DHT22;62112;45.638;11.714;2023-02-03T17:48:39;19.00;64.90
71672;DHT22;62112;45.638;11.714;2023-02-03T17:53:32;19.00;64.10